Observations for INVERNESS DALCROSS, United Kingdom (EGPE)

EGPE 190320Z 21020KT CAVOK 09/07 Q0994  
EGPE 190250Z 21014KT CAVOK 08/07 Q0994  
EGPE 190220Z 24008KT 9999 FEW026 06/05 Q0994
EGPE 190150Z 21010KT 9999 FEW026 07/06 Q0994
EGPE 190120Z AUTO 21012KT 9999 NCD 08/06 Q0994  
EGPE 190050Z AUTO 22033G47KT 5000 RA SCT020/// SCT038/// 08/07 Q0995
EGPE 190020Z AUTO 15003KT 9999 NCD 09/08 Q0993  
EGPE 182350Z AUTO 00000KT 9999 NCD 08/06 Q0993  
EGPE 182320Z AUTO 15004KT 9999 NCD 09/07 Q0993  
EGPE 182250Z AUTO VRB03KT 9999 NCD 09/08 Q0994  
EGPE 182220Z AUTO 20010KT 9999 NCD 11/09 Q0994  
EGPE 182150Z AUTO 21010KT 9999 NCD 11/09 Q0994  
EGPE 182120Z AUTO 22020KT 9999 -DZ SCT048/// 12/10 Q0995
EGPE 182050Z 22014KT 9999 VCSH FEW022 13/10 Q0994   
EGPE 182020Z 21012KT 9999 VCSH FEW022 SCT040 13/11 Q0994
EGPE 181950Z 20008KT 9999 FEW022 13/11 Q0994
EGPE 181920Z 21012KT 9999 FEW022 13/11 Q0994
EGPE 181850Z 21009KT 180V240 9999 FEW022 13/11 Q0994
EGPE 181820Z 23010KT 9999 FEW022 13/11 Q0994
EGPE 181750Z 22021KT 9999 FEW022 SCT042 14/11 Q0993 
EGPE 181720Z 22016KT 9999 FEW022 SCT040 14/12 Q0993 
EGPE 181650Z 22019G31KT 9999 FEW022 SCT035 15/11 Q0993  
EGPE 181620Z 23024G35KT 9999 FEW022 16/12 Q0992 
EGPE 181550Z 23024KT 9999 SCT005 SCT021 16/13 Q0992 
EGPE 181520Z 23020G32KT 9999 SCT005 SCT021 16/15 Q0992  
EGPE 181450Z VRB02G12KT 9999 FEW003 SCT005 BKN010 14/14 Q0992   
EGPE 181420Z 07004KT 030V100 6000 -RADZ FEW002 SCT003 BKN007 14/13 Q0992
EGPE 181350Z 04006KT 6000 -RADZ FEW002 SCT003 BKN007 14/13 Q0992
EGPE 181320Z 03006KT 6000 -RADZ FEW002 SCT003 BKN005 13/13 Q0992
EGPE 181250Z 03007KT 6000 -RADZ FEW002 SCT003 BKN005 13/13 Q0992
EGPE 181220Z 05009KT 6000 -RADZ FEW002 SCT003 BKN005 13/13 Q0992
EGPE 181150Z 06010KT 6000 -RADZ FEW002 BKN003 BKN009 13/13 Q0992
EGPE 181120Z 06010KT 6000 -RADZ FEW002 BKN003 BKN010 14/13 Q0992
EGPE 181050Z 06011KT 4000 -RADZ FEW002 BKN003 BKN009 13/13 Q0992
EGPE 181020Z 06011KT 3500 -RADZ FEW002 BKN003 BKN011 13/13 Q0993
EGPE 180950Z 04007KT 2000 R05/1200 RADZ FEW002 BKN003 BKN008 13/13 Q0993
EGPE 180920Z 04006KT 3000 R05/1400 -RADZ FEW002 BKN004 BKN012 13/13 Q0993   
EGPE 180850Z 03005KT 2000 R05/1200 -RADZ FEW002 BKN004 BKN012 13/13 Q0993   
EGPE 180820Z 04005KT 5000 -RADZ FEW002 SCT005 BKN014 14/13 Q0993
EGPE 180750Z 05004KT 3500 -RADZ FEW002 BKN005 BKN013 14/13 Q0993
EGPE 180720Z 07004KT 6000 RADZ FEW004 SCT006 BKN017 14/13 Q0993 
EGPE 180650Z 17003KT 6000 RADZ FEW008 BKN017 14/13 Q0993
EGPE 180620Z 19002KT 6000 RADZ FEW008 BKN017 14/13 Q0994
EGPE 180550Z VRB02KT 6000 RADZ FEW010 BKN016 14/13 Q0994
EGPE 180520Z 27007KT 6000 RADZ FEW010 SCT018 BKN034 14/14 Q0993 
EGPE 180450Z 23005KT 9999 FEW022 BKN033 15/14 Q0993 
EGPE 180420Z 22005KT 9999 FEW022 BKN045 15/14 Q0993 
EGPE 180350Z 27007KT 9999 FEW022 15/14 Q0993
EGPE 180320Z 23007KT 9999 FEW022 15/14 Q0994
EGPE 180250Z 22006KT 9999 FEW022 16/14 Q0994